Allendale, Missouri
Current Conditions -  °F | °C
As of 8:53 AM on Thursday 30 Oct 2014 (Local Time) from KLWD Reporting Station
Clear Clear  
Wind Chill: 43°   Ceiling: Unl
Heat Index: 43°   Visibility: 10mi
Dew Point: 37°   Wind: 3mph
Humidity: 80%   Direction: 70°ENE
Pressure: 30.01"   Gusts: NA
Location:  40.49°N, 94.29°W
Report Text: KLWD 301353Z AUTO 07003KT 10SM CLR 06/03 A3001 RMK AO2 SLP168 T00610028
Loading
Personal Weather Stations






























Interactive Weather Map
Tropical Storm Tracking
New forecast layout! Learn more

10-Day Weather Forecast

Advertisements
Track Severe Weather on mobile